KLVJ

Pearland Regional Airport

Houston, Texas, USA
METAR KLVJ 230953Z AUTO 30004KT 4SM BR OVC003 19/19 A3018 RMK AO2 SLP219 T01940194
Observed Flight Rules
Feb-23 @ 09:53 UTC (31 minutes ago) Instrument Flight Rules
Wind Visibility Clouds Conditions
300° at 4 knots 4 miles
  • Overcast at 300' AGL
  • Mist
Temperatures Readings
Current 19°C / 66°F
Dewpoint 19°C / 66°F
Humidity 100%
Altimeter 30.18" Hg
Pressure 1021.9 hPa
Elevation 12
METAR KLVJ 230953Z AUTO 30004KT 4SM BR OVC003 19/19 A3018 RMK AO2 SLP219 T01940194
Observed Flight Rules
Feb-23 @ 09:53 UTC
(31 minutes ago)
LIFR
Wind Visibility
300° at 4 knots 4 miles
Clouds
  • Overcast at 300' AGL
Conditions
  • Mist
Temperature Dewpoint
19°C / 66°F 19°C / 66°F
Humidity Altimeter Pressure
100% 30.18" Hg 1021.9 hPa